Time;durP1;ratioP1;P1;durP2;ratioP2;P2;SDS_P1;SDS_P2;PMS_P1;PMS_P2;Temp;Humidity;BMP_temperature;BMP_pressure;BME280_temperature;BME280_humidity;BME280_pressure;Samples;Min_cycle;Max_cycle;Signal;HPM_P1;HPM_P2
2022/03/02 00:01:41;;;;;;;30.50;18.58;;;;;;;-0.35;66.70;102059.31;5045699;28;20036;-24
2022/03/02 00:04:07;;;;;;;31.05;19.15;;;;;;;-0.35;66.76;102070.56;5047868;28;20108;-24
2022/03/02 00:06:32;;;;;;;26.35;18.42;;;;;;;-0.37;66.82;102068.72;5047557;28;20483;-23
2022/03/02 00:08:58;;;;;;;25.58;18.15;;;;;;;-0.40;66.76;102062.53;5030083;28;20128;-24
2022/03/02 00:11:23;;;;;;;25.05;18.08;;;;;;;-0.43;66.84;102054.56;5047473;28;20028;-23
2022/03/02 00:13:49;;;;;;;26.83;18.25;;;;;;;-0.44;67.14;102052.78;5047600;28;20025;-23
2022/03/02 00:16:14;;;;;;;27.30;17.98;;;;;;;-0.45;66.94;102057.88;5047483;28;20025;-23
2022/03/02 00:18:40;;;;;;;27.52;18.40;;;;;;;-0.46;66.66;102056.09;5045965;28;20033;-24
2022/03/02 00:21:06;;;;;;;26.55;18.63;;;;;;;-0.49;67.01;102056.81;5013047;28;20021;-24
2022/03/02 00:23:32;;;;;;;25.58;18.13;;;;;;;-0.51;66.74;102058.41;5044953;28;20119;-23
2022/03/02 00:25:57;;;;;;;27.75;20.35;;;;;;;-0.52;67.02;102056.63;5047060;28;20273;-23
2022/03/02 00:28:23;;;;;;;28.15;19.05;;;;;;;-0.54;66.57;102050.44;5046872;28;20025;-23
2022/03/02 00:30:50;;;;;;;24.80;17.75;;;;;;;-0.56;66.69;102052.06;5047842;28;20360;-23
2022/03/02 00:33:16;;;;;;;26.50;18.65;;;;;;;-0.58;66.58;102040.69;5049374;28;20032;-23
2022/03/02 00:35:41;;;;;;;26.67;20.08;;;;;;;-0.59;66.61;102038.91;5044557;28;20550;-23
2022/03/02 00:38:10;;;;;;;26.48;17.88;;;;;;;-0.61;66.75;102043.09;5044234;28;20025;-24
2022/03/02 00:40:36;;;;;;;27.73;18.98;;;;;;;-0.63;66.39;102036.97;5031040;28;20029;-23
2022/03/02 00:43:01;;;;;;;25.15;18.25;;;;;;;-0.65;67.17;102030.00;5048771;28;20130;-23
2022/03/02 00:45:27;;;;;;;27.75;18.48;;;;;;;-0.68;66.90;102024.63;5050507;28;20037;-24
2022/03/02 00:47:52;;;;;;;27.52;18.13;;;;;;;-0.68;66.92;102034.09;5033292;28;20041;-23
2022/03/02 00:50:19;;;;;;;23.38;18.50;;;;;;;-0.69;66.98;102034.91;5050941;28;20028;-23
2022/03/02 00:52:44;;;;;;;27.75;18.35;;;;;;;-0.71;66.86;102028.72;5049477;28;20033;-23
2022/03/02 00:55:10;;;;;;;28.00;19.00;;;;;;;-0.74;66.88;102032.03;5032377;28;20588;-23
2022/03/02 00:57:35;;;;;;;26.08;17.63;;;;;;;-0.74;66.93;102033.75;5050804;28;20024;-23
2022/03/02 01:00:01;;;;;;;25.75;17.55;;;;;;;-0.77;67.33;102034.44;5051217;28;20032;-24
2022/03/02 01:02:26;;;;;;;27.08;17.85;;;;;;;-0.77;67.04;102024.06;5052791;28;20032;-23
2022/03/02 01:04:51;;;;;;;25.65;17.58;;;;;;;-0.80;67.09;102029.97;5053583;28;20393;-23
2022/03/02 01:07:17;;;;;;;26.42;18.13;;;;;;;-0.81;67.10;102035.06;5034663;28;20116;-24
2022/03/02 01:09:42;;;;;;;25.58;17.92;;;;;;;-0.82;67.30;102030.69;5052505;28;20023;-23
2022/03/02 01:12:08;;;;;;;28.67;18.52;;;;;;;-0.84;67.14;102032.31;5050828;28;20032;-22
2022/03/02 01:14:34;;;;;;;26.13;18.40;;;;;;;-0.87;67.13;102021.75;5052004;28;20057;-23
2022/03/02 01:16:59;;;;;;;26.23;18.27;;;;;;;-0.88;66.75;102020.84;5051034;28;20437;-23
2022/03/02 01:19:25;;;;;;;26.13;18.13;;;;;;;-0.88;66.95;102017.34;5033148;28;20244;-23
2022/03/02 01:21:50;;;;;;;24.40;17.20;;;;;;;-0.91;66.81;102011.19;5050374;28;20036;-23
2022/03/02 01:24:16;;;;;;;29.00;19.45;;;;;;;-0.93;67.15;102012.78;5049445;28;20032;-23
2022/03/02 01:26:41;;;;;;;31.73;19.02;;;;;;;-0.94;67.02;102020.47;5015491;28;20033;-23
2022/03/02 01:29:07;;;;;;;24.15;17.77;;;;;;;-0.97;67.08;102013.41;5050235;28;20124;-23
2022/03/02 01:31:32;;;;;;;24.77;17.35;;;;;;;-0.99;67.21;102009.84;5032572;28;20029;-23
2022/03/02 01:33:57;;;;;;;24.50;18.05;;;;;;;-0.99;66.81;102012.44;5049787;28;20029;-24
2022/03/02 01:36:23;;;;;;;23.73;17.13;;;;;;;-1.00;67.57;102000.28;5032274;28;20486;-23
2022/03/02 01:38:49;;;;;;;30.75;18.50;;;;;;;-1.02;66.97;102009.66;5049612;28;20025;-23
2022/03/02 01:41:17;;;;;;;29.17;18.55;;;;;;;-1.03;67.26;102000.13;5050096;28;20364;-23
2022/03/02 01:43:46;;;;;;;27.08;18.63;;;;;;;-1.04;66.98;101990.53;5052825;28;20039;-23
2022/03/02 01:46:12;;;;;;;30.25;18.35;;;;;;;-1.05;67.12;101996.53;5048442;28;20474;-23
2022/03/02 01:48:38;;;;;;;24.58;18.48;;;;;;;-1.08;67.51;101991.16;5031908;28;20045;-23
2022/03/02 01:51:04;;;;;;;27.38;17.67;;;;;;;-1.10;67.34;101982.41;5048154;28;20133;-23
2022/03/02 01:53:30;;;;;;;27.08;18.65;;;;;;;-1.12;67.15;101981.41;5047447;28;20111;-23
2022/03/02 01:55:56;;;;;;;26.80;18.70;;;;;;;-1.14;67.06;101980.44;5047615;28;20514;-23
2022/03/02 01:58:21;;;;;;;25.70;17.75;;;;;;;-1.17;67.31;101982.03;5049799;28;20021;-23
2022/03/02 02:00:46;;;;;;;26.92;18.20;;;;;;;-1.17;66.92;101976.84;5016558;28;20389;-23
2022/03/02 02:03:12;;;;;;;25.98;19.35;;;;;;;-1.20;67.12;101966.31;5049547;28;20032;-24
2022/03/02 02:05:37;;;;;;;26.27;18.88;;;;;;;-1.22;66.74;101961.84;5050746;28;20060;-24
2022/03/02 02:08:03;;;;;;;24.60;18.88;;;;;;;-1.24;67.30;101963.47;5049647;28;20021;-23
2022/03/02 02:10:28;;;;;;;25.38;17.60;;;;;;;-1.26;66.71;101962.47;5049571;28;20063;-23
2022/03/02 02:12:53;;;;;;;24.55;17.25;;;;;;;-1.27;67.46;101958.97;5048271;28;20027;-23
2022/03/02 02:15:19;;;;;;;26.58;17.73;;;;;;;-1.30;66.95;101966.56;5049218;28;21244;-23
2022/03/02 02:17:44;;;;;;;24.10;18.63;;;;;;;-1.32;67.00;101955.22;5048843;28;20028;-24
2022/03/02 02:20:10;;;;;;;26.80;18.67;;;;;;;-1.34;67.07;101952.53;5031537;28;20048;-22
2022/03/02 02:22:44;;;;;;;26.50;17.02;;;;;;;-1.35;67.15;101970.56;5049232;28;20028;-23
2022/03/02 02:25:10;;;;;;;27.83;18.05;;;;;;;-1.39;67.11;101955.66;5016881;28;20020;-23
2022/03/02 02:27:35;;;;;;;27.90;18.95;;;;;;;-1.40;67.41;101954.75;5048489;28;20025;-23
2022/03/02 02:30:02;;;;;;;27.65;18.55;;;;;;;-1.40;67.00;101966.81;5049820;28;20040;-23
2022/03/02 02:32:28;;;;;;;28.98;18.90;;;;;;;-1.43;66.86;101962.34;5048296;28;20021;-23
2022/03/02 02:34:54;;;;;;;26.42;18.67;;;;;;;-1.46;67.00;101952.69;5050695;28;20036;-24
2022/03/02 02:37:19;;;;;;;24.85;17.55;;;;;;;-1.46;66.83;101956.97;5030407;28;20390;-23
2022/03/02 02:39:55;;;;;;;30.33;19.15;;;;;;;-1.50;66.95;101955.88;5031497;28;20246;-23
2022/03/02 02:42:21;;;;;;;24.10;17.67;;;;;;;-1.53;67.56;101949.63;5030502;28;20028;-23
2022/03/02 02:44:46;;;;;;;28.80;18.00;;;;;;;-1.53;66.89;101950.53;5047665;28;20104;-23
2022/03/02 02:47:11;;;;;;;25.38;19.23;;;;;;;-1.56;66.86;101948.63;5050443;28;20025;-23
2022/03/02 02:49:37;;;;;;;24.05;16.88;;;;;;;-1.57;67.47;101943.41;5048150;28;20471;-23
2022/03/02 02:52:02;;;;;;;28.77;19.23;;;;;;;-1.58;67.16;101941.59;5047732;28;20036;-24
2022/03/02 02:54:28;;;;;;;29.15;18.27;;;;;;;-1.62;66.88;101932.75;5031337;28;20053;-23
2022/03/02 02:56:53;;;;;;;27.95;18.42;;;;;;;-1.61;67.53;101941.38;5047637;28;20032;-24
2022/03/02 02:59:19;;;;;;;26.60;18.60;;;;;;;-1.63;67.29;101927.47;5049027;28;20486;-23
2022/03/02 03:01:44;;;;;;;24.15;17.45;;;;;;;-1.65;67.34;101929.06;5049138;28;20033;-23
2022/03/02 03:04:10;;;;;;;25.33;18.73;;;;;;;-1.68;66.93;101930.69;5051161;28;20033;-23
2022/03/02 03:06:35;;;;;;;28.55;18.40;;;;;;;-1.70;67.17;101924.50;5052504;28;20040;-23
2022/03/02 03:09:00;;;;;;;26.23;18.67;;;;;;;-1.71;67.37;101924.41;5032943;28;20072;-23
2022/03/02 03:11:26;;;;;;;29.52;18.92;;;;;;;-1.73;67.38;101924.31;5048366;28;20040;-22
2022/03/02 03:13:52;;;;;;;30.73;18.88;;;;;;;-1.75;67.53;101925.94;5048292;28;20029;-23
2022/03/02 03:16:17;;;;;;;25.55;17.63;;;;;;;-1.75;67.08;101928.50;5047736;28;20029;-23
2022/03/02 03:18:43;;;;;;;29.10;18.90;;;;;;;-1.77;67.53;101921.47;5048901;28;20040;-23
2022/03/02 03:21:08;;;;;;;26.52;18.90;;;;;;;-1.79;67.38;101921.38;5047913;28;20063;-23
2022/03/02 03:23:34;;;;;;;27.08;18.58;;;;;;;-1.80;67.63;101924.75;5046260;28;20028;-22
2022/03/02 03:25:59;;;;;;;26.42;17.27;;;;;;;-1.84;67.08;101913.31;5047489;28;20087;-23
2022/03/02 03:28:25;;;;;;;26.27;18.17;;;;;;;-1.84;67.53;101918.50;5045667;28;20032;-24
2022/03/02 03:30:50;;;;;;;27.20;18.13;;;;;;;-1.84;67.12;101922.75;5048801;28;20032;-23
2022/03/02 03:33:16;;;;;;;24.50;17.65;;;;;;;-1.87;67.77;101923.47;5046975;28;20117;-23
2022/03/02 03:35:41;;;;;;;25.60;18.83;;;;;;;-1.88;67.67;101915.59;5049248;28;20063;-24
2022/03/02 03:38:06;;;;;;;26.92;17.13;;;;;;;-1.90;67.63;101918.09;5045720;28;20107;-23
2022/03/02 03:40:32;;;;;;;30.92;18.65;;;;;;;-1.91;67.14;101921.50;5046982;28;20024;-23
2022/03/02 03:42:57;;;;;;;25.85;18.58;;;;;;;-1.91;67.67;101915.44;5046589;28;20028;-23
2022/03/02 03:45:23;;;;;;;28.50;18.83;;;;;;;-1.92;67.62;101916.22;5042719;28;20028;-23
2022/03/02 03:47:49;;;;;;;29.50;18.02;;;;;;;-1.94;67.44;101921.28;5046731;28;20021;-23
2022/03/02 03:50:15;;;;;;;28.35;18.02;;;;;;;-1.96;67.31;101916.03;5047495;28;20024;-24
2022/03/02 03:52:41;;;;;;;29.58;19.27;;;;;;;-1.97;67.40;101909.06;5047742;28;20518;-22
2022/03/02 03:55:07;;;;;;;26.30;18.48;;;;;;;-1.98;67.55;101904.69;5046684;28;20033;-23
2022/03/02 03:57:33;;;;;;;25.00;17.67;;;;;;;-1.99;67.01;101897.75;5042889;28;20560;-23
2022/03/02 03:59:58;;;;;;;28.23;18.10;;;;;;;-2.01;67.36;101909.69;5043620;28;20033;-22
2022/03/02 04:02:24;;;;;;;29.58;18.75;;;;;;;-2.02;67.47;101902.72;5048273;28;20040;-23
2022/03/02 04:04:50;;;;;;;26.10;18.55;;;;;;;-2.02;67.33;101910.50;5029869;28;20083;-23
2022/03/02 04:07:15;;;;;;;29.92;19.25;;;;;;;-2.04;67.81;101912.06;5045826;28;20025;-24
2022/03/02 04:09:41;;;;;;;24.55;17.90;;;;;;;-2.04;67.86;101914.66;5028780;28;20027;-23
2022/03/02 04:12:06;;;;;;;25.50;17.25;;;;;;;-2.05;67.55;101905.13;5045795;28;20025;-23
2022/03/02 04:14:32;;;;;;;26.65;18.77;;;;;;;-2.09;67.41;101893.72;5043441;28;20074;-22
2022/03/02 04:16:57;;;;;;;28.73;19.08;;;;;;;-2.06;67.28;101904.22;5029323;28;20046;-23
2022/03/02 04:19:23;;;;;;;27.83;17.02;;;;;;;-2.07;67.78;101898.94;5046774;28;20040;-23
2022/03/02 04:21:48;;;;;;;26.80;18.85;;;;;;;-2.09;67.55;101895.38;5029129;28;20028;-23
2022/03/02 04:24:13;;;;;;;25.27;18.60;;;;;;;-2.09;67.42;101890.22;5046504;28;20037;-24
2022/03/02 04:26:39;;;;;;;28.35;18.00;;;;;;;-2.09;67.76;101893.72;5029663;28;20032;-23
2022/03/02 04:29:04;;;;;;;30.52;19.60;;;;;;;-2.10;67.40;101888.44;5046741;28;20064;-23
2022/03/02 04:31:30;;;;;;;29.75;20.95;;;;;;;-2.10;68.01;101883.25;5028545;28;20504;-24
2022/03/02 04:33:55;;;;;;;25.33;18.48;;;;;;;-2.12;67.54;101884.84;5029528;28;20091;-24
2022/03/02 04:36:21;;;;;;;28.90;18.92;;;;;;;-2.10;67.63;101883.25;5046264;28;20079;-23
2022/03/02 04:38:46;;;;;;;27.15;18.75;;;;;;;-2.12;67.85;101875.41;5048059;28;20044;-23
2022/03/02 04:41:11;;;;;;;26.92;18.17;;;;;;;-2.11;67.16;101876.28;5029150;28;20491;-23
2022/03/02 04:43:37;;;;;;;28.38;18.58;;;;;;;-2.11;67.17;101873.69;5044032;28;20025;-23
2022/03/02 04:46:02;;;;;;;29.52;19.45;;;;;;;-2.12;67.63;101864.16;5043102;28;20299;-23
2022/03/02 04:48:28;;;;;;;26.42;17.67;;;;;;;-2.11;67.78;101865.94;5044851;28;20066;-23
2022/03/02 04:50:53;;;;;;;30.10;19.42;;;;;;;-2.12;67.52;101864.16;5043152;28;20063;-23
2022/03/02 04:53:23;;;;;;;25.73;18.27;;;;;;;-2.11;67.59;101865.94;5026361;28;20461;-23
2022/03/02 04:55:49;;;;;;;27.27;18.00;;;;;;;-2.14;67.74;101866.66;5044769;28;20025;-23
2022/03/02 04:58:14;;;;;;;28.15;19.88;;;;;;;-2.12;67.13;101864.16;5046689;28;20024;-22
2022/03/02 05:00:40;;;;;;;25.88;18.33;;;;;;;-2.13;67.80;101862.38;5045656;28;20045;-24
2022/03/02 05:03:06;;;;;;;30.45;18.63;;;;;;;-2.15;67.34;101863.97;5044435;28;20036;-23
2022/03/02 05:05:34;;;;;;;28.00;19.33;;;;;;;-2.15;67.17;101858.78;5047999;28;20781;-24
2022/03/02 05:08:00;;;;;;;28.80;18.92;;;;;;;-2.16;67.64;101857.91;5050043;28;20060;-23
2022/03/02 05:10:25;;;;;;;21.88;16.95;;;;;;;-2.15;67.79;101866.56;5049554;28;20033;-24
2022/03/02 05:12:51;;;;;;;24.67;18.02;;;;;;;-2.15;67.41;101862.28;5047128;28;20033;-23
2022/03/02 05:15:17;;;;;;;26.88;19.35;;;;;;;-2.15;67.76;101863.97;5048285;28;20406;-23
2022/03/02 05:17:44;;;;;;;26.10;18.52;;;;;;;-2.16;67.73;101862.19;5046827;28;20025;-23
2022/03/02 05:20:12;;;;;;;27.58;19.02;;;;;;;-2.19;67.86;101861.19;5047396;28;20028;-24
2022/03/02 05:22:37;;;;;;;27.58;19.95;;;;;;;-2.18;67.67;101864.69;5030260;28;20032;-23
2022/03/02 05:25:05;;;;;;;26.50;18.65;;;;;;;-2.20;67.77;101867.16;5045857;28;20025;-23
2022/03/02 05:27:30;;;;;;;27.27;18.08;;;;;;;-2.20;67.48;101866.28;5048351;28;20029;-23
2022/03/02 05:29:56;;;;;;;28.25;18.52;;;;;;;-2.19;67.53;101866.34;5049138;28;20039;-23
2022/03/02 05:32:21;;;;;;;29.88;19.52;;;;;;;-2.20;67.75;101862.00;5052192;28;20386;-23
2022/03/02 05:34:46;;;;;;;28.83;19.15;;;;;;;-2.20;67.43;101851.66;5048261;28;20013;-23
2022/03/02 05:37:12;;;;;;;26.80;19.33;;;;;;;-2.20;67.24;101868.88;5025708;28;20039;-23
2022/03/02 05:39:37;;;;;;;24.80;18.30;;;;;;;-2.22;67.36;101873.94;5042850;28;20173;-22
2022/03/02 05:42:03;;;;;;;29.55;20.02;;;;;;;-2.23;67.64;101869.53;5046599;28;20036;-24
2022/03/02 05:44:29;;;;;;;28.55;18.52;;;;;;;-2.23;67.65;101873.84;5027881;28;20394;-23
2022/03/02 05:46:54;;;;;;;26.10;18.15;;;;;;;-2.23;67.84;101872.13;5008565;28;20733;-23
2022/03/02 05:49:20;;;;;;;26.58;17.88;;;;;;;-2.24;67.32;101877.19;5044241;28;20051;-22
2022/03/02 05:51:45;;;;;;;26.98;19.05;;;;;;;-2.24;67.50;101878.09;5042428;28;20029;-23
2022/03/02 05:54:10;;;;;;;26.92;19.20;;;;;;;-2.25;67.47;101873.75;5025704;28;20029;-23
2022/03/02 05:56:37;;;;;;;31.08;19.35;;;;;;;-2.25;67.60;101872.84;5045459;28;20068;-22
2022/03/02 05:59:11;;;;;;;30.10;19.05;;;;;;;-2.24;67.72;101874.63;5043589;28;20078;-24
2022/03/02 06:01:37;;;;;;;28.67;19.50;;;;;;;-2.24;67.31;101870.34;5043824;28;20029;-23
2022/03/02 06:04:04;;;;;;;30.67;19.08;;;;;;;-2.26;67.87;101874.56;5042450;28;20054;-23
2022/03/02 06:06:31;;;;;;;30.23;18.30;;;;;;;-2.26;67.68;101881.41;5042250;28;20045;-24
2022/03/02 06:08:56;;;;;;;27.33;18.58;;;;;;;-2.25;68.04;101884.09;5042405;28;20035;-23
2022/03/02 06:11:22;;;;;;;29.33;18.83;;;;;;;-2.26;67.59;101881.41;5044113;28;20902;-23
2022/03/02 06:13:48;;;;;;;25.63;18.15;;;;;;;-2.29;67.52;101874.34;5043656;28;20075;-24
2022/03/02 06:16:14;;;;;;;28.17;18.75;;;;;;;-2.26;67.81;101882.31;5043776;28;20116;-23
2022/03/02 06:18:40;;;;;;;29.38;19.13;;;;;;;-2.27;67.52;101896.00;5026006;28;20115;-23
2022/03/02 06:21:05;;;;;;;25.42;18.92;;;;;;;-2.27;67.65;101890.84;5044288;28;20104;-23
2022/03/02 06:23:31;;;;;;;31.02;19.65;;;;;;;-2.29;67.65;101897.63;5024262;28;20500;-23
2022/03/02 06:25:57;;;;;;;30.50;18.70;;;;;;;-2.29;67.71;101891.53;5044015;28;20386;-23
2022/03/02 06:28:25;;;;;;;31.17;18.70;;;;;;;-2.32;68.04;101889.66;5051235;28;20025;-23
2022/03/02 06:30:51;;;;;;;29.77;19.77;;;;;;;-2.30;67.48;101890.66;5049859;28;20550;-23
2022/03/02 06:33:18;;;;;;;28.33;18.88;;;;;;;-2.30;67.85;101898.41;5049101;28;20108;-23
2022/03/02 06:35:45;;;;;;;26.73;18.75;;;;;;;-2.30;68.16;101898.41;5049201;28;20029;-23
2022/03/02 06:38:10;;;;;;;30.25;18.17;;;;;;;-2.31;68.10;101909.53;5030639;28;20021;-23
2022/03/02 06:40:37;;;;;;;28.20;17.73;;;;;;;-2.31;68.13;101906.94;5049274;28;20098;-23
2022/03/02 06:43:06;;;;;;;28.73;17.65;;;;;;;-2.32;68.38;101908.66;5031820;28;20515;-24
2022/03/02 06:45:55;;;;;;;29.40;18.73;;;;;;;-2.29;67.94;101909.63;5047088;28;20032;-23
2022/03/02 06:48:26;;;;;;;29.00;18.60;;;;;;;-2.29;67.79;101905.38;5030451;28;20024;-23
2022/03/02 06:50:53;;;;;;;31.77;19.83;;;;;;;-2.29;67.71;101902.78;5030106;28;20028;-24
2022/03/02 06:53:27;;;;;;;26.55;18.80;;;;;;;-2.30;68.28;101898.41;5050799;28;20394;-23
2022/03/02 06:55:53;;;;;;;26.10;17.95;;;;;;;-2.28;67.88;101898.50;5048837;28;20033;-23
2022/03/02 06:58:20;;;;;;;26.67;18.50;;;;;;;-2.28;68.27;101903.66;5030293;28;20032;-23
2022/03/02 07:00:52;;;;;;;26.27;18.83;;;;;;;-2.28;67.71;101893.31;5029674;28;20056;-23
2022/03/02 07:03:18;;;;;;;29.50;19.60;;;;;;;-2.27;68.19;101885.66;5048949;28;20032;-24
2022/03/02 07:05:46;;;;;;;28.73;19.23;;;;;;;-2.27;67.92;101897.72;5049675;28;20533;-23
2022/03/02 07:08:11;;;;;;;27.42;18.90;;;;;;;-2.28;68.26;101903.66;5047488;28;20031;-24
2022/03/02 07:10:37;;;;;;;29.30;19.63;;;;;;;-2.27;68.17;101897.72;5046932;28;20021;-23
2022/03/02 07:13:07;;;;;;;25.17;18.17;;;;;;;-2.26;68.50;101890.06;5049554;28;20395;-23
2022/03/02 07:15:33;;;;;;;27.70;18.08;;;;;;;-2.25;68.10;101889.25;5047959;28;20063;-23
2022/03/02 07:17:59;;;;;;;28.55;18.85;;;;;;;-2.22;68.26;101894.63;5049677;28;20094;-24
2022/03/02 07:20:27;;;;;;;24.75;17.67;;;;;;;-2.23;68.26;101891.94;5032941;28;20449;-23
2022/03/02 07:22:53;;;;;;;27.30;18.67;;;;;;;-2.21;68.32;101896.41;5047790;28;20391;-23
2022/03/02 07:25:24;;;;;;;28.45;18.50;;;;;;;-2.18;68.68;101890.53;5046084;28;20037;-23
2022/03/02 07:27:50;;;;;;;29.55;18.65;;;;;;;-2.17;68.22;101887.13;5048077;28;20506;-23
2022/03/02 07:30:15;;;;;;;26.42;18.25;;;;;;;-2.14;67.94;101882.16;5014651;28;20340;-22
2022/03/02 07:32:45;;;;;;;27.73;19.33;;;;;;;-2.13;68.53;101893.41;5047593;28;20438;-23
2022/03/02 07:35:11;;;;;;;25.48;17.77;;;;;;;-2.11;68.52;101887.53;5044935;28;20024;-23
2022/03/02 07:37:37;;;;;;;28.55;19.60;;;;;;;-2.09;68.05;101890.22;5045161;28;20037;-23
2022/03/02 07:40:03;;;;;;;29.75;19.52;;;;;;;-2.06;68.31;101890.41;5052978;28;20107;-23
2022/03/02 07:42:33;;;;;;;30.80;19.83;;;;;;;-2.03;68.78;101888.03;5051950;28;20143;-23
2022/03/02 07:44:59;;;;;;;31.55;20.27;;;;;;;-2.00;68.93;101884.72;5050717;28;20017;-24
2022/03/02 07:47:25;;;;;;;29.42;19.92;;;;;;;-1.97;68.37;101884.94;5049674;28;20025;-23
2022/03/02 07:49:51;;;;;;;35.33;21.52;;;;;;;-1.95;68.96;101886.81;5030166;28;20046;-23
2022/03/02 07:52:18;;;;;;;32.20;20.45;;;;;;;-1.91;68.83;101887.88;5047675;28;20151;-24
2022/03/02 07:54:44;;;;;;;35.35;20.85;;;;;;;-1.89;68.88;101888.88;5049072;28;20032;-23
2022/03/02 07:57:13;;;;;;;32.15;21.00;;;;;;;-1.86;68.50;101885.56;5050765;28;20029;-23
2022/03/02 07:59:42;;;;;;;29.85;20.02;;;;;;;-1.82;69.23;101891.03;5049892;28;20035;-24
2022/03/02 08:02:09;;;;;;;34.05;21.55;;;;;;;-1.79;69.15;101892.91;5047299;28;20185;-23
2022/03/02 08:04:39;;;;;;;48.92;27.63;;;;;;;-1.75;69.10;101886.22;5032164;28;20086;-23
2022/03/02 08:07:04;;;;;;;39.38;25.73;;;;;;;-1.71;69.12;101883.91;5051770;28;20453;-23
2022/03/02 08:09:34;;;;;;;44.60;25.42;;;;;;;-1.68;69.59;101889.28;5031004;28;20032;-23
2022/03/02 08:12:00;;;;;;;43.38;25.60;;;;;;;-1.64;69.42;101889.47;5048916;28;20021;-23
2022/03/02 08:14:26;;;;;;;39.83;23.92;;;;;;;-1.60;69.58;101889.72;5048517;28;20644;-23
2022/03/02 08:16:52;;;;;;;41.50;25.45;;;;;;;-1.58;69.41;101893.31;5030358;28;20120;-24
2022/03/02 08:19:18;;;;;;;41.78;24.63;;;;;;;-1.52;69.70;101890.22;5049457;28;20017;-24
2022/03/02 08:21:47;;;;;;;39.45;25.65;;;;;;;-1.46;69.19;101900.91;5047458;28;20029;-23
2022/03/02 08:24:15;;;;;;;44.90;25.10;;;;;;;-1.44;69.64;101894.16;5029791;28;20524;-24
2022/03/02 08:26:40;;;;;;;42.38;23.58;;;;;;;-1.40;69.01;101886.56;5049127;28;20032;-23
2022/03/02 08:29:10;;;;;;;40.65;23.58;;;;;;;-1.36;68.61;101889.44;5047856;28;20029;-23
2022/03/02 08:31:38;;;;;;;40.55;23.95;;;;;;;-1.32;68.82;101885.31;5049197;28;20036;-24
2022/03/02 08:34:04;;;;;;;39.88;22.33;;;;;;;-1.29;68.50;101882.94;5049951;28;20047;-23
2022/03/02 08:36:33;;;;;;;36.95;22.83;;;;;;;-1.26;68.16;101880.53;5044372;28;20386;-24
2022/03/02 08:39:00;;;;;;;38.95;23.13;;;;;;;-1.22;67.89;101885.06;5048375;28;20021;-24
2022/03/02 08:41:26;;;;;;;37.75;24.45;;;;;;;-1.18;68.22;101876.69;5030829;28;20032;-23
2022/03/02 08:43:51;;;;;;;37.00;22.95;;;;;;;-1.14;68.41;101879.47;5032101;28;20047;-23
2022/03/02 08:46:16;;;;;;;41.70;23.52;;;;;;;-1.10;67.86;101873.66;5013683;28;20398;-23
2022/03/02 08:48:42;;;;;;;39.50;23.30;;;;;;;-1.06;68.17;101876.50;5047745;28;20111;-23
2022/03/02 08:51:08;;;;;;;35.25;22.33;;;;;;;-1.00;68.44;101875.94;5049207;28;20021;-24
2022/03/02 08:53:33;;;;;;;38.65;21.98;;;;;;;-0.94;67.94;101876.31;5048885;28;20468;-23
2022/03/02 08:56:00;;;;;;;36.72;22.77;;;;;;;-0.87;68.26;101871.50;5049656;28;20466;-22
2022/03/02 08:58:27;;;;;;;35.13;23.60;;;;;;;-0.82;68.27;101859.69;5049289;28;20021;-24
2022/03/02 09:00:53;;;;;;;35.78;21.42;;;;;;;-0.76;68.20;101852.28;5049410;28;20450;-24
2022/03/02 09:03:21;;;;;;;37.53;23.35;;;;;;;-0.70;68.22;101855.19;5035281;28;20021;-23
2022/03/02 09:05:48;;;;;;;39.05;24.27;;;;;;;-0.62;68.51;101846.97;5053764;28;20063;-23
2022/03/02 09:08:14;;;;;;;37.55;22.60;;;;;;;-0.55;68.11;101841.31;5053246;28;20037;-23
2022/03/02 09:10:40;;;;;;;35.78;24.08;;;;;;;-0.48;68.07;101840.84;5034542;28;20051;-23
2022/03/02 09:13:06;;;;;;;36.22;22.38;;;;;;;-0.40;68.07;101836.09;5034730;28;20036;-23
2022/03/02 09:15:34;;;;;;;30.95;21.00;;;;;;;-0.32;67.37;101839.09;5055164;28;20039;-23
2022/03/02 09:18:00;;;;;;;34.15;22.48;;;;;;;-0.27;67.59;101829.84;5052705;28;20029;-23
2022/03/02 09:20:25;;;;;;;34.42;23.08;;;;;;;-0.18;67.32;101835.56;5033312;28;20134;-24
2022/03/02 09:22:51;;;;;;;31.85;21.98;;;;;;;-0.12;67.53;101832.41;5052220;28;20074;-23
2022/03/02 09:25:17;;;;;;;35.47;23.05;;;;;;;-0.03;67.68;101832.00;5034980;28;20562;-23
2022/03/02 09:27:43;;;;;;;33.92;21.67;;;;;;;0.03;67.18;101824.53;5050110;28;20159;-23
2022/03/02 09:30:09;;;;;;;33.95;22.67;;;;;;;0.10;67.19;101836.16;5034151;28;20360;-25
2022/03/02 09:32:39;;;;;;;29.23;21.25;;;;;;;0.17;67.31;101832.16;5051713;28;20442;-26
2022/03/02 09:35:05;;;;;;;33.75;21.95;;;;;;;0.25;67.06;101830.84;5033989;28;20048;-26
2022/03/02 09:37:35;;;;;;;34.15;22.10;;;;;;;0.32;67.31;101832.97;5052509;28;20045;-26
2022/03/02 09:40:01;;;;;;;31.77;22.65;;;;;;;0.37;66.62;101828.88;5053088;28;20380;-25
2022/03/02 09:42:27;;;;;;;31.75;21.27;;;;;;;0.45;67.13;101828.38;5051887;28;20125;-26
2022/03/02 09:45:00;;;;;;;35.63;23.75;;;;;;;0.51;66.60;101827.00;5031863;28;20066;-23
2022/03/02 09:47:44;;;;;;;32.55;20.75;;;;;;;0.58;66.64;101824.72;5051121;28;20047;-24
2022/03/02 09:50:13;;;;;;;33.28;22.42;;;;;;;0.64;66.71;101823.31;5038059;28;20128;-24
2022/03/02 09:52:41;;;;;;;32.70;22.67;;;;;;;0.71;66.48;101827.13;5051441;28;20648;-24
2022/03/02 09:55:09;;;;;;;35.70;22.85;;;;;;;0.77;66.71;101829.13;5051761;28;20033;-24
2022/03/02 09:57:41;;;;;;;32.08;23.88;;;;;;;0.84;67.00;101832.94;5033678;28;20025;-24
2022/03/02 10:00:08;;;;;;;35.50;22.77;;;;;;;0.90;66.48;101833.22;5052566;28;20009;-24
2022/03/02 10:02:42;;;;;;;30.58;20.15;;;;;;;0.95;66.54;101831.75;5051164;28;20501;-23
2022/03/02 10:05:20;;;;;;;33.85;23.65;;;;;;;1.01;66.38;101823.38;5050539;28;20505;-24
2022/03/02 10:08:05;;;;;;;29.13;22.17;;;;;;;1.08;66.53;101830.66;5048724;28;20047;-24
2022/03/02 10:10:36;;;;;;;30.20;22.65;;;;;;;1.14;66.55;101828.31;5027504;28;20447;-23
2022/03/02 10:13:04;;;;;;;37.90;24.23;;;;;;;1.23;66.63;101821.81;5049998;28;20111;-23
2022/03/02 10:15:30;;;;;;;32.78;23.52;;;;;;;1.31;66.63;101820.47;5052389;28;20025;-24
2022/03/02 10:18:00;;;;;;;29.73;22.63;;;;;;;1.36;66.38;101813.75;5051015;28;20032;-24
2022/03/02 10:20:31;;;;;;;31.27;23.25;;;;;;;1.46;66.66;101817.69;5032536;28;20024;-24
2022/03/02 10:23:14;;;;;;;31.58;23.10;;;;;;;1.56;66.70;101816.41;5033858;28;20071;-24
2022/03/02 10:25:51;;;;;;;32.50;23.58;;;;;;;1.66;66.70;101804.72;5032867;28;21050;-24
2022/03/02 10:28:26;;;;;;;31.92;23.30;;;;;;;1.74;66.49;101807.69;5051807;28;20036;-23
2022/03/02 10:31:36;;;;;;;31.70;22.58;;;;;;;1.85;66.64;101803.84;5050565;28;20043;-23
2022/03/02 10:34:27;;;;;;;33.70;23.75;;;;;;;1.96;66.84;101796.53;5031758;28;20036;-24
2022/03/02 10:37:15;;;;;;;33.97;23.60;;;;;;;2.09;66.36;101791.84;5046765;28;20032;-24
2022/03/02 10:39:52;;;;;;;35.67;24.08;;;;;;;2.18;66.47;101793.16;5049221;28;20033;-24
2022/03/02 10:42:25;;;;;;;32.72;23.95;;;;;;;2.28;66.74;101788.34;5055402;28;20051;-24
2022/03/02 10:45:26;;;;;;;34.10;23.85;;;;;;;2.37;66.74;101788.72;5065059;28;20028;-24
2022/03/02 10:48:13;;;;;;;36.10;24.55;;;;;;;2.52;66.60;101787.59;4960902;28;20034;-24
2022/03/02 10:50:40;;;;;;;37.10;24.85;;;;;;;2.61;66.48;101782.81;5048860;28;20048;-23
2022/03/02 10:53:12;;;;;;;32.28;23.13;;;;;;;2.71;66.52;101783.16;5061778;28;20020;-23
2022/03/02 10:55:38;;;;;;;34.90;25.80;;;;;;;2.82;66.63;101784.50;5034818;28;20020;-24
2022/03/02 10:58:05;;;;;;;38.28;26.77;;;;;;;2.94;67.14;101777.16;5030987;28;20414;-24
2022/03/02 11:00:31;;;;;;;31.48;24.45;;;;;;;3.07;67.25;101780.28;5049690;28;21656;-24
2022/03/02 11:02:57;;;;;;;34.05;26.15;;;;;;;3.16;66.81;101767.59;5032534;28;20032;-24
2022/03/02 11:05:25;;;;;;;35.25;26.08;;;;;;;3.27;66.69;101770.63;5049293;28;20029;-24
2022/03/02 11:07:51;;;;;;;37.20;27.45;;;;;;;3.38;66.47;101757.13;5050373;28;20035;-24
2022/03/02 11:10:20;;;;;;;35.42;25.83;;;;;;;3.44;66.49;101763.44;5029546;28;20051;-24